Time;durP1;ratioP1;P1;durP2;ratioP2;P2;SDS_P1;SDS_P2;PMS_P1;PMS_P2;Temp;Humidity;BMP_temperature;BMP_pressure;BME280_temperature;BME280_humidity;BME280_pressure;Samples;Min_cycle;Max_cycle;Signal;HPM_P1;HPM_P2
2021/09/17 00:01:03;;;;;;;17.95;14.88;;;14.50;83.10;;;13.13;90.53;96091.13;4945757;28;20969;-66
2021/09/17 00:03:30;;;;;;;20.20;13.85;;;14.40;83.00;;;13.10;90.41;96080.13;4947622;29;20040;-66
2021/09/17 00:05:56;;;;;;;18.25;13.63;;;14.40;83.00;;;13.06;90.26;96089.50;4934298;29;20028;-66
2021/09/17 00:08:22;;;;;;;18.27;13.98;;;14.40;83.00;;;13.04;89.78;96092.34;4964448;28;20067;-65
2021/09/17 00:10:48;;;;;;;18.35;13.23;;;14.40;82.90;;;13.03;89.54;96084.63;4948250;29;20039;-66
2021/09/17 00:13:13;;;;;;;16.35;13.15;;;14.40;83.00;;;13.03;89.60;96089.91;4964357;28;20118;-66
2021/09/17 00:15:39;;;;;;;17.35;13.13;;;14.40;82.90;;;13.01;90.51;96090.09;4947162;29;20035;-66
2021/09/17 00:18:05;;;;;;;17.63;13.77;;;14.30;82.90;;;12.99;90.54;96089.50;4963497;28;20087;-66
2021/09/17 00:20:30;;;;;;;17.83;13.68;;;14.30;82.90;;;12.96;89.97;96094.38;4962801;28;20074;-66
2021/09/17 00:22:56;;;;;;;15.52;13.27;;;14.20;82.90;;;12.93;90.51;96094.78;4946880;29;20039;-66
2021/09/17 00:25:22;;;;;;;15.40;12.85;;;14.20;83.00;;;12.91;89.88;96091.53;4935146;29;20094;-66
2021/09/17 00:27:48;;;;;;;18.38;13.75;;;14.20;82.90;;;12.88;90.16;96090.91;4965589;28;20484;-66
2021/09/17 00:30:13;;;;;;;15.75;13.57;;;14.20;83.00;;;12.87;90.27;96096.41;4963063;28;20506;-65
2021/09/17 00:32:39;;;;;;;19.50;14.02;;;14.20;83.00;;;12.83;89.78;96093.34;4949060;28;20039;-66
2021/09/17 00:35:05;;;;;;;17.45;13.98;;;14.10;83.00;;;12.81;89.83;96089.28;4932194;29;20069;-66
2021/09/17 00:37:31;;;;;;;17.88;14.45;;;14.20;82.90;;;12.77;90.12;96091.53;4950379;29;20137;-67
2021/09/17 00:39:57;;;;;;;18.55;14.95;;;14.10;83.10;;;12.75;90.43;96088.28;4948441;28;20071;-66
2021/09/17 00:42:23;;;;;;;20.05;14.50;;;14.10;83.10;;;12.73;91.11;96090.31;4948747;28;20176;-66
2021/09/17 00:44:49;;;;;;;20.33;15.10;;;14.10;83.20;;;12.71;90.84;96081.78;4949520;28;20471;-65
2021/09/17 00:47:15;;;;;;;17.30;14.60;;;14.10;83.50;;;12.70;90.64;96096.00;4947761;28;20050;-66
2021/09/17 00:49:41;;;;;;;19.75;14.38;;;14.10;83.50;;;12.71;91.61;96089.72;4918463;29;21106;-66
2021/09/17 00:52:07;;;;;;;18.33;14.60;;;14.10;83.50;;;12.71;91.69;96081.78;4931248;29;20240;-66
2021/09/17 00:54:34;;;;;;;20.08;14.88;;;14.10;83.70;;;12.74;91.16;96076.09;4931730;28;20062;-66
2021/09/17 00:57:01;;;;;;;21.13;14.75;;;14.10;83.70;;;12.75;91.39;96082.19;4946025;29;20515;-66
2021/09/17 00:59:27;;;;;;;17.60;13.90;;;14.20;83.80;;;12.76;92.22;96079.34;4917034;29;20134;-65
2021/09/17 01:01:54;;;;;;;19.60;15.23;;;14.10;83.70;;;12.74;91.46;96078.75;4944920;28;20663;-66
2021/09/17 01:04:19;;;;;;;21.05;15.90;;;14.10;83.70;;;12.75;91.98;96080.38;4924540;28;20105;-66
2021/09/17 01:06:45;;;;;;;20.00;15.70;;;14.10;84.00;;;12.76;92.18;96073.25;4948158;29;20546;-66
2021/09/17 01:09:18;;;;;;;23.35;15.48;;;14.10;83.80;;;12.78;91.67;96072.03;5099094;27;20527;-66
2021/09/17 01:11:45;;;;;;;20.13;15.02;;;14.20;83.90;;;12.79;91.64;96065.75;5039675;28;20058;-66
2021/09/17 01:14:10;;;;;;;20.70;14.88;;;14.20;83.80;;;12.81;91.63;96066.34;5047402;28;20153;-66
2021/09/17 01:16:36;;;;;;;20.00;15.15;;;14.20;83.80;;;12.81;91.96;96066.34;5057913;28;20055;-66
2021/09/17 01:19:02;;;;;;;18.17;14.77;;;14.20;83.80;;;12.83;91.88;96063.50;5038029;28;20117;-66
2021/09/17 01:21:28;;;;;;;21.15;14.40;;;14.30;83.60;;;12.84;92.51;96059.84;5075332;28;20127;-66
2021/09/17 01:23:54;;;;;;;19.13;14.48;;;14.30;83.50;;;12.86;91.56;96052.53;5057532;28;20044;-66
2021/09/17 01:26:19;;;;;;;17.15;14.10;;;14.30;83.50;;;12.86;91.77;96057.81;5057061;28;20113;-66
2021/09/17 01:28:45;;;;;;;21.55;14.68;;;14.30;83.50;;;12.88;92.49;96055.78;5059330;28;20507;-66
2021/09/17 01:31:11;;;;;;;19.40;14.45;;;14.30;83.40;;;12.89;91.92;96058.22;5069905;28;20071;-66
2021/09/17 01:33:37;;;;;;;20.35;14.43;;;14.30;83.20;;;12.91;91.38;96054.59;5061436;28;20040;-67
2021/09/17 01:36:06;;;;;;;16.08;13.63;;;14.40;83.40;;;12.93;92.50;96052.56;5056589;28;20056;-67
2021/09/17 01:38:32;;;;;;;18.75;13.98;;;14.40;83.10;;;12.94;91.54;96054.19;5075655;28;20040;-66
2021/09/17 01:40:58;;;;;;;17.90;14.27;;;14.40;83.00;;;12.95;91.65;96043.41;5044150;28;20178;-67
2021/09/17 01:43:24;;;;;;;16.95;14.27;;;14.40;83.10;;;12.98;91.82;96044.81;5064943;28;20523;-67
2021/09/17 01:45:49;;;;;;;19.52;13.48;;;14.50;83.00;;;12.99;91.67;96043.81;5076058;28;20089;-66
2021/09/17 01:48:15;;;;;;;19.67;14.23;;;14.40;82.90;;;12.99;91.77;96041.97;5074712;28;20515;-66
2021/09/17 01:50:41;;;;;;;16.67;13.65;;;14.40;82.70;;;12.98;90.71;96040.34;5055209;28;20037;-67
2021/09/17 01:53:12;;;;;;;16.02;13.57;;;14.40;82.70;;;12.99;91.52;96039.34;5059605;28;20124;-66
2021/09/17 01:55:37;;;;;;;19.20;13.35;;;14.50;82.80;;;12.99;91.08;96041.16;5020892;28;20029;-66
2021/09/17 01:58:04;;;;;;;16.13;13.45;;;14.50;82.80;;;12.99;91.53;96031.41;5062292;28;20568;-66
2021/09/17 02:00:29;;;;;;;20.42;13.63;;;14.50;82.70;;;13.03;91.04;96037.09;5050855;28;20032;-66
2021/09/17 02:02:55;;;;;;;18.23;14.23;;;14.60;82.70;;;13.03;91.33;96037.91;5055368;28;20040;-66
2021/09/17 02:05:21;;;;;;;21.10;13.65;;;14.50;82.70;;;13.02;91.40;96031.00;5072555;28;20036;-68
2021/09/17 02:07:47;;;;;;;17.40;12.98;;;14.50;82.50;;;13.02;90.66;96035.47;5054860;28;20086;-67
2021/09/17 02:10:14;;;;;;;16.38;12.35;;;14.50;82.10;;;13.01;89.98;96039.13;5059332;28;20051;-66
2021/09/17 02:12:40;;;;;;;17.00;12.32;;;14.50;82.30;;;12.99;91.23;96036.69;5057800;28;20032;-66
2021/09/17 02:15:06;;;;;;;17.30;13.05;;;14.50;82.20;;;13.00;90.95;96037.50;5077915;28;20533;-66
2021/09/17 02:17:32;;;;;;;15.18;12.60;;;14.50;82.00;;;12.97;90.23;96043.19;5071376;28;20025;-66
2021/09/17 02:19:58;;;;;;;14.43;12.68;;;14.40;82.00;;;12.92;90.37;96045.66;5052582;28;20495;-66
2021/09/17 02:22:24;;;;;;;20.33;16.27;;;14.40;82.00;;;12.88;90.79;96043.38;5041887;28;20561;-66
2021/09/17 02:24:50;;;;;;;27.17;21.35;;;14.30;82.40;;;12.87;90.23;96041.75;5041560;28;20068;-66
2021/09/17 02:27:16;;;;;;;18.38;16.15;;;14.30;82.50;;;12.83;90.91;96042.38;5008540;28;20073;-66
2021/09/17 02:29:42;;;;;;;19.05;14.02;;;14.30;82.20;;;12.80;90.30;96042.78;5034635;28;20061;-66
2021/09/17 02:32:09;;;;;;;19.13;14.38;;;14.10;82.40;;;12.75;89.70;96050.53;5060265;28;20083;-67
2021/09/17 02:34:34;;;;;;;21.02;15.48;;;14.10;82.40;;;12.72;90.10;96050.94;5024124;28;20503;-67
2021/09/17 02:37:00;;;;;;;17.13;14.73;;;14.10;82.70;;;12.71;90.94;96054.59;5025502;28;20029;-66
2021/09/17 02:39:26;;;;;;;19.20;12.95;;;14.10;82.60;;;12.67;90.21;96053.34;5024492;28;20026;-66
2021/09/17 02:41:52;;;;;;;17.60;12.93;;;14.10;82.80;;;12.65;90.14;96053.56;5036973;28;20104;-66
2021/09/17 02:44:17;;;;;;;15.20;13.13;;;14.10;82.90;;;12.63;90.56;96042.38;5020657;28;20527;-67
2021/09/17 02:46:43;;;;;;;18.45;13.32;;;14.10;83.00;;;12.62;90.74;96050.50;5015969;28;20061;-69
2021/09/17 02:49:09;;;;;;;15.63;12.98;;;14.10;82.90;;;12.59;90.64;96051.72;5020351;28;20133;-66
2021/09/17 02:51:34;;;;;;;15.38;12.80;;;14.10;83.20;;;12.57;90.89;96048.47;5040736;28;20060;-67
2021/09/17 02:54:00;;;;;;;16.08;12.85;;;14.00;83.00;;;12.52;91.27;96035.91;5042522;28;20063;-70
2021/09/17 02:56:26;;;;;;;19.08;12.48;;;13.90;83.00;;;12.49;90.79;96040.78;5022669;28;20040;-67
2021/09/17 02:58:52;;;;;;;16.10;12.77;;;13.90;83.20;;;12.47;91.30;96045.44;5045481;28;20025;-66
2021/09/17 03:01:18;;;;;;;23.58;18.98;;;13.90;83.30;;;12.46;91.40;96047.28;5027785;28;20440;-66
2021/09/17 03:03:43;;;;;;;21.17;17.85;;;13.90;83.50;;;12.46;91.29;96046.47;5044467;28;20587;-67
2021/09/17 03:06:09;;;;;;;16.90;14.73;;;13.90;83.50;;;12.46;91.60;96054.38;5039719;28;20056;-66
2021/09/17 03:08:35;;;;;;;16.25;13.77;;;13.90;83.80;;;12.46;91.80;96054.38;5028479;28;20048;-66
2021/09/17 03:11:00;;;;;;;16.48;13.70;;;13.90;83.80;;;12.45;92.20;96055.38;5012157;28;20467;-67
2021/09/17 03:13:26;;;;;;;19.10;15.15;;;13.90;84.20;;;12.44;91.94;96051.91;5037520;28;20078;-66
2021/09/17 03:15:52;;;;;;;21.10;16.35;;;13.90;83.90;;;12.47;92.86;96053.34;5033791;28;20029;-66
2021/09/17 03:18:18;;;;;;;20.95;17.05;;;13.90;84.20;;;12.50;92.75;96047.69;5012908;28;20029;-66
2021/09/17 03:20:44;;;;;;;15.35;13.32;;;14.00;84.20;;;12.49;92.79;96046.88;5008119;28;20745;-66
2021/09/17 03:23:12;;;;;;;15.07;12.90;;;14.00;84.00;;;12.50;92.47;96047.69;5010363;28;20148;-66
2021/09/17 03:25:37;;;;;;;17.90;13.30;;;14.00;83.90;;;12.51;92.88;96038.75;5029580;28;20488;-66
2021/09/17 03:28:04;;;;;;;17.55;13.18;;;14.10;83.70;;;12.52;92.79;96046.44;5029166;28;20029;-66
2021/09/17 03:30:29;;;;;;;14.63;12.82;;;14.00;83.70;;;12.52;91.99;96051.72;5011287;28;20075;-66
2021/09/17 03:32:55;;;;;;;18.38;13.15;;;14.00;83.50;;;12.52;91.74;96046.44;5025181;28;20032;-66
2021/09/17 03:35:21;;;;;;;14.32;12.80;;;14.00;83.10;;;12.53;92.24;96042.00;5046402;28;20026;-66
2021/09/17 03:37:47;;;;;;;16.48;12.85;;;14.00;83.00;;;12.54;91.75;96043.63;5045949;28;20043;-66
2021/09/17 03:40:12;;;;;;;16.33;13.45;;;14.00;83.30;;;12.52;91.71;96043.81;5044467;28;20183;-66
2021/09/17 03:42:38;;;;;;;15.75;12.80;;;14.00;83.20;;;12.52;92.08;96046.44;5028283;28;20496;-66
2021/09/17 03:45:07;;;;;;;16.92;13.90;;;13.90;83.60;;;12.51;92.01;96050.09;5038395;28;20083;-67
2021/09/17 03:47:32;;;;;;;18.88;14.65;;;14.00;83.80;;;12.52;92.25;96040.38;5023916;28;20057;-66
2021/09/17 03:49:58;;;;;;;17.45;13.75;;;14.00;83.60;;;12.51;92.68;96042.19;5029251;28;20417;-71
2021/09/17 03:52:24;;;;;;;20.10;12.95;;;14.00;83.50;;;12.52;92.57;96040.38;5011955;28;20072;-67
2021/09/17 03:54:50;;;;;;;17.77;13.65;;;14.00;83.30;;;12.53;92.42;96042.00;5025033;28;20033;-67
2021/09/17 03:57:15;;;;;;;20.88;13.60;;;14.00;83.10;;;12.51;92.40;96050.09;5009958;28;20045;-67
2021/09/17 03:59:41;;;;;;;22.60;14.63;;;14.10;82.80;;;12.51;92.23;96044.03;5011018;28;20520;-67
2021/09/17 04:02:07;;;;;;;16.20;14.07;;;14.10;82.90;;;12.52;91.44;96040.38;4993482;28;20104;-67
2021/09/17 04:04:32;;;;;;;19.05;14.98;;;14.00;83.10;;;12.52;92.09;96043.00;5018919;28;20536;-67
2021/09/17 04:06:58;;;;;;;18.23;13.63;;;14.10;83.10;;;12.53;91.96;96034.06;5029696;28;20421;-67
2021/09/17 04:09:24;;;;;;;20.60;14.85;;;14.00;83.10;;;12.51;92.52;96038.75;5013236;28;20053;-67
2021/09/17 04:11:50;;;;;;;16.83;14.07;;;14.10;82.80;;;12.51;92.40;96030.84;5012917;28;20037;-67
2021/09/17 04:14:15;;;;;;;18.20;14.25;;;14.10;83.00;;;12.51;91.83;96028.19;5009620;28;20065;-68
2021/09/17 04:16:41;;;;;;;18.35;14.27;;;14.00;83.00;;;12.51;92.11;96028.19;4992927;28;20058;-68
2021/09/17 04:19:07;;;;;;;18.88;14.88;;;14.00;83.10;;;12.49;92.56;96035.50;4993572;28;20551;-68
2021/09/17 04:21:33;;;;;;;16.55;14.73;;;13.90;83.20;;;12.48;91.43;96029.41;4993091;28;20121;-68
2021/09/17 04:23:58;;;;;;;18.00;14.43;;;14.00;83.00;;;12.49;92.24;96031.03;5005464;28;20489;-68
2021/09/17 04:26:24;;;;;;;21.73;15.07;;;14.00;83.10;;;12.51;91.27;96030.84;5025678;28;20037;-68
2021/09/17 04:28:50;;;;;;;16.30;14.10;;;14.00;82.70;;;12.51;91.44;96038.75;5030685;28;20040;-67
2021/09/17 04:31:16;;;;;;;20.52;15.65;;;14.00;82.80;;;12.50;91.88;96047.69;5029254;28;20473;-67
2021/09/17 04:33:42;;;;;;;20.52;14.80;;;14.00;82.70;;;12.49;91.88;96051.31;5009011;28;20048;-68
2021/09/17 04:36:08;;;;;;;19.33;15.00;;;14.00;83.00;;;12.49;91.25;96040.78;5010986;28;20030;-68
2021/09/17 04:38:33;;;;;;;22.45;15.32;;;14.00;82.80;;;12.46;91.38;96041.19;5008593;28;20087;-68
2021/09/17 04:40:59;;;;;;;18.17;15.80;;;14.00;83.10;;;12.45;91.60;96044.84;5009362;28;20116;-67
2021/09/17 04:43:27;;;;;;;20.08;15.95;;;13.90;83.30;;;12.44;91.65;96040.53;4993160;28;20029;-68
2021/09/17 04:45:53;;;;;;;20.23;15.13;;;13.90;83.20;;;12.45;91.53;96050.13;5029158;28;20576;-68
2021/09/17 04:48:19;;;;;;;21.10;15.73;;;13.90;83.10;;;12.44;92.34;96044.00;5028672;28;20034;-68
2021/09/17 04:50:44;;;;;;;20.13;15.90;;;13.90;83.10;;;12.47;91.50;96050.72;5012317;28;20052;-67
2021/09/17 04:53:13;;;;;;;20.85;16.02;;;14.00;83.10;;;12.46;91.39;96041.19;5030222;28;20052;-68
2021/09/17 04:55:39;;;;;;;22.90;15.93;;;14.00;83.10;;;12.47;91.70;96045.44;5024760;28;20044;-68
2021/09/17 04:58:06;;;;;;;18.45;15.27;;;14.00;83.00;;;12.47;91.55;96043.63;5018670;28;20036;-68
2021/09/17 05:00:33;;;;;;;20.67;16.25;;;14.00;82.90;;;12.46;91.42;96047.28;5027939;28;20597;-67
2021/09/17 05:02:58;;;;;;;21.58;16.05;;;14.00;83.00;;;12.48;91.48;96044.44;5026523;28;20033;-68
2021/09/17 05:05:24;;;;;;;20.23;15.75;;;14.10;83.10;;;12.48;92.46;96044.44;5012036;28;20128;-67
2021/09/17 05:07:50;;;;;;;17.58;12.73;;;14.00;83.10;;;12.47;92.10;96048.09;5024483;28;20088;-68
2021/09/17 05:10:16;;;;;;;24.10;15.55;;;14.00;83.30;;;12.48;91.99;96041.78;5061192;28;20071;-68
2021/09/17 05:12:41;;;;;;;17.33;14.70;;;14.10;83.10;;;12.49;92.21;96046.06;5065745;28;20086;-68
2021/09/17 05:15:08;;;;;;;21.52;15.98;;;14.10;82.90;;;12.50;92.45;96050.31;5041605;28;20041;-67
2021/09/17 05:17:34;;;;;;;18.33;15.80;;;14.10;82.90;;;12.50;92.43;96052.94;5029452;28;20455;-67
2021/09/17 05:20:00;;;;;;;18.00;14.40;;;14.10;82.80;;;12.52;92.69;96058.84;5012424;28;20124;-68
2021/09/17 05:22:26;;;;;;;18.15;14.85;;;14.10;82.90;;;12.53;92.21;96053.34;5008218;28;20034;-68
2021/09/17 05:24:52;;;;;;;17.95;15.02;;;14.10;82.90;;;12.53;92.19;96053.34;4999930;28;20048;-68
2021/09/17 05:27:18;;;;;;;22.65;15.85;;;14.10;83.10;;;12.54;92.04;96048.88;4992247;28;20030;-68
2021/09/17 05:29:44;;;;;;;20.77;15.60;;;14.10;83.10;;;12.54;92.97;96049.69;5008516;28;20093;-68
2021/09/17 05:32:10;;;;;;;18.50;14.80;;;14.20;83.40;;;12.58;92.18;96055.38;5012739;28;20221;-67
2021/09/17 05:34:36;;;;;;;19.55;15.13;;;14.20;83.20;;;12.61;93.29;96054.97;5030822;28;20033;-67
2021/09/17 05:37:02;;;;;;;18.73;15.10;;;14.20;83.20;;;12.64;92.28;96059.84;5011582;28;20504;-67
2021/09/17 05:39:27;;;;;;;17.48;15.05;;;14.20;82.90;;;12.66;92.95;96052.53;5011776;28;20453;-67
2021/09/17 05:41:53;;;;;;;19.13;15.00;;;14.30;83.20;;;12.69;92.58;96061.91;5024567;28;20381;-67
2021/09/17 05:44:19;;;;;;;19.23;14.38;;;14.30;82.70;;;12.72;92.23;96062.31;4991423;28;20509;-66
2021/09/17 05:46:45;;;;;;;18.58;14.43;;;14.40;83.00;;;12.76;92.07;96062.69;5009726;28;20490;-67
2021/09/17 05:49:11;;;;;;;15.57;13.73;;;14.40;82.70;;;12.78;92.35;96066.75;5024869;28;20125;-67
2021/09/17 05:51:37;;;;;;;17.38;13.65;;;14.40;82.20;;;12.81;91.93;96060.25;5038563;28;20100;-67
2021/09/17 05:54:03;;;;;;;16.85;14.02;;;14.40;82.50;;;12.81;92.45;96068.97;5006473;28;20081;-67
2021/09/17 05:56:29;;;;;;;19.40;13.90;;;14.40;82.20;;;12.85;93.09;96066.75;5030244;28;20038;-67
2021/09/17 05:58:54;;;;;;;15.02;13.38;;;14.50;82.60;;;12.87;92.41;96068.16;5051359;28;20103;-67
2021/09/17 06:01:20;;;;;;;19.85;14.80;;;14.60;82.40;;;12.93;92.21;96076.31;5034979;28;20033;-67
2021/09/17 06:03:46;;;;;;;16.55;13.68;;;14.60;82.50;;;12.93;91.44;96078.94;5051878;28;20029;-67
2021/09/17 06:06:12;;;;;;;22.17;14.35;;;14.60;82.30;;;12.96;92.53;96078.53;5035555;28;20032;-67
2021/09/17 06:08:38;;;;;;;17.77;14.65;;;14.60;82.30;;;13.01;91.48;96070.81;5030864;28;20033;-68
2021/09/17 06:11:03;;;;;;;16.48;13.68;;;14.70;82.40;;;13.04;91.40;96075.69;5033052;28;20018;-68
2021/09/17 06:13:29;;;;;;;17.55;14.68;;;14.70;82.00;;;13.07;92.56;96075.25;5031620;28;20561;-68
2021/09/17 06:15:55;;;;;;;18.10;14.15;;;14.70;82.20;;;13.10;92.87;96072.22;5033178;28;20037;-68
2021/09/17 06:18:21;;;;;;;17.73;13.63;;;14.70;82.10;;;13.14;91.38;96068.16;5032422;28;20123;-68
2021/09/17 06:20:47;;;;;;;16.63;13.95;;;14.80;82.10;;;13.18;92.52;96072.84;5047862;28;20041;-68
2021/09/17 06:23:12;;;;;;;16.27;14.20;;;14.90;82.10;;;13.21;92.59;96071.63;5015214;28;20057;-68
2021/09/17 06:25:38;;;;;;;17.70;14.20;;;14.90;81.70;;;13.25;91.05;96072.84;5014892;28;20389;-68
2021/09/17 06:28:05;;;;;;;23.42;14.40;;;14.90;81.70;;;13.28;92.58;96072.41;5031769;28;20052;-68
2021/09/17 06:30:31;;;;;;;29.33;14.85;;;15.00;81.60;;;13.31;91.00;96072.00;5031424;28;20042;-67
2021/09/17 06:32:57;;;;;;;21.48;14.40;;;15.00;81.20;;;13.31;91.24;96066.72;5020037;28;20057;-68
2021/09/17 06:35:23;;;;;;;17.88;15.00;;;15.00;81.40;;;13.36;91.32;96077.50;5011732;28;20030;-67
2021/09/17 06:37:51;;;;;;;16.80;14.20;;;15.00;81.20;;;13.41;91.52;96075.06;5011658;28;20469;-67
2021/09/17 06:40:17;;;;;;;18.85;14.20;;;15.10;81.20;;;13.46;91.82;96077.06;5028098;28;20038;-67
2021/09/17 06:42:43;;;;;;;18.85;14.68;;;15.30;81.10;;;13.52;90.87;96072.78;5030348;28;20120;-67
2021/09/17 06:45:09;;;;;;;17.52;13.45;;;15.30;81.10;;;13.58;91.50;96078.06;5031097;28;20110;-68
2021/09/17 06:47:53;;;;;;;19.65;14.70;;;15.40;80.30;;;13.64;91.40;96073.78;5030862;28;20026;-67
2021/09/17 06:50:20;;;;;;;17.20;14.23;;;15.40;80.60;;;13.67;90.17;96068.06;4999515;28;20516;-67
2021/09/17 06:52:50;;;;;;;17.52;14.02;;;15.50;80.70;;;13.73;90.82;96075.97;4994355;28;20050;-68
2021/09/17 06:55:23;;;;;;;19.85;14.73;;;15.60;81.00;;;13.82;90.55;96068.63;5034465;28;20029;-67
2021/09/17 06:57:56;;;;;;;22.98;17.58;;;15.60;80.60;;;13.88;90.55;96073.06;5002950;28;20448;-68
2021/09/17 07:00:25;;;;;;;19.98;14.48;;;15.60;80.40;;;13.93;91.01;96070.59;5027644;28;20576;-67
2021/09/17 07:02:51;;;;;;;21.88;15.68;;;15.70;80.00;;;13.98;90.00;96080.53;5030840;28;20386;-67
2021/09/17 07:05:17;;;;;;;19.20;14.30;;;15.80;79.60;;;14.02;89.52;96068.50;5014468;28;20088;-68
2021/09/17 07:07:43;;;;;;;19.83;17.00;;;15.80;79.80;;;14.10;89.94;96070.94;5030734;28;20511;-68
2021/09/17 07:10:10;;;;;;;17.63;15.05;;;15.90;79.50;;;14.16;88.92;96074.56;5027317;28;20038;-66
2021/09/17 07:12:36;;;;;;;18.40;14.48;;;15.90;78.50;;;14.20;89.21;96075.75;4993807;28;20026;-67
2021/09/17 07:15:02;;;;;;;15.77;14.02;;;16.00;78.70;;;14.21;88.23;96074.72;5010996;28;20113;-67
2021/09/17 07:17:28;;;;;;;18.83;15.73;;;15.90;78.40;;;14.23;88.56;96075.31;4994630;28;20056;-67
2021/09/17 07:19:54;;;;;;;16.63;14.80;;;16.00;79.00;;;14.30;88.21;96081.41;5023520;28;20530;-67
2021/09/17 07:22:20;;;;;;;20.25;16.75;;;16.10;79.00;;;14.33;90.12;96071.22;5031145;28;20029;-68
2021/09/17 07:24:47;;;;;;;17.13;14.50;;;16.10;79.30;;;14.39;89.35;96075.63;5030355;28;20400;-67
2021/09/17 07:27:13;;;;;;;19.48;14.23;;;16.20;78.60;;;14.45;87.75;96076.66;5030575;28;20032;-67
2021/09/17 07:29:39;;;;;;;18.25;13.32;;;16.30;78.00;;;14.49;87.58;96069.94;5030110;28;20120;-67
2021/09/17 07:32:05;;;;;;;17.42;13.40;;;16.30;77.50;;;14.55;87.60;96070.91;5026321;28;20029;-67
2021/09/17 07:34:31;;;;;;;18.23;13.75;;;16.40;77.20;;;14.60;87.36;96071.88;4993684;28;20034;-67
2021/09/17 07:36:57;;;;;;;16.42;13.05;;;16.40;77.00;;;14.65;86.55;96071.22;5010696;28;20555;-68
2021/09/17 07:39:23;;;;;;;15.90;12.60;;;16.50;76.50;;;14.70;87.56;96082.78;5018040;28;20404;-67
2021/09/17 07:41:48;;;;;;;16.20;13.25;;;16.60;76.70;;;14.77;86.34;96076.66;5013494;28;20131;-67
2021/09/17 07:44:14;;;;;;;14.30;11.95;;;16.60;76.60;;;14.85;86.13;96071.06;5013629;28;20056;-67
2021/09/17 07:46:40;;;;;;;17.30;12.65;;;16.80;76.30;;;14.94;86.58;96075.09;5029064;28;20445;-67
2021/09/17 07:49:05;;;;;;;17.48;12.98;;;16.90;75.90;;;15.01;85.72;96073.19;5026321;28;20133;-67
2021/09/17 07:51:31;;;;;;;18.95;12.60;;;16.90;74.90;;;15.07;85.22;96072.31;4996209;28;20051;-67
2021/09/17 07:53:57;;;;;;;13.93;12.00;;;16.90;75.00;;;15.14;85.05;96070.41;4995630;28;20112;-67
2021/09/17 07:56:23;;;;;;;15.25;11.70;;;17.10;75.00;;;15.22;85.40;96070.16;5009655;28;20038;-67
2021/09/17 07:58:48;;;;;;;14.70;11.77;;;17.10;74.50;;;15.29;84.47;96070.88;5013215;28;20037;-67
2021/09/17 08:01:14;;;;;;;13.75;11.70;;;17.30;73.70;;;15.36;83.75;96077.94;4996656;28;20036;-67
2021/09/17 08:03:40;;;;;;;13.52;12.07;;;17.30;73.50;;;15.43;83.84;96076.06;5029078;28;20053;-66
2021/09/17 08:06:06;;;;;;;14.35;12.88;;;17.50;73.80;;;15.48;84.67;96073.56;5013534;28;20102;-67
2021/09/17 08:08:32;;;;;;;16.65;14.85;;;17.50;73.00;;;15.53;83.75;96077.16;5012690;28;20041;-67
2021/09/17 08:10:58;;;;;;;17.60;12.75;;;17.50;73.10;;;15.59;83.11;96076.31;5013162;28;20038;-67
2021/09/17 08:13:23;;;;;;;13.43;12.00;;;17.60;73.30;;;15.67;82.66;96071.75;5012647;28;20573;-67
2021/09/17 08:15:49;;;;;;;14.48;12.32;;;17.60;72.50;;;15.74;83.34;96073.28;5013066;28;20560;-67
2021/09/17 08:18:15;;;;;;;13.48;11.68;;;17.60;72.80;;;15.82;82.18;96072.16;5012723;28;20045;-67
2021/09/17 08:20:48;;;;;;;15.65;12.60;;;17.70;72.00;;;15.90;82.05;96078.00;4995984;28;20060;-67
2021/09/17 08:23:19;;;;;;;15.02;13.23;;;18.00;71.10;;;15.93;81.80;96080.22;5001150;28;20038;-66
2021/09/17 08:25:45;;;;;;;;;;;17.80;71.40;;;15.97;79.92;96075.25;5022209;28;20050;-67
2021/09/17 08:28:11;;;;;;;13.35;11.80;;;18.00;71.20;;;16.03;82.12;96077.00;5029524;28;19921;-68
2021/09/17 08:30:37;;;;;;;15.55;13.63;;;18.00;71.00;;;16.11;81.93;96074.06;5028542;28;20109;-68
2021/09/17 08:33:03;;;;;;;16.02;12.32;;;18.10;70.90;;;16.23;81.15;96076.75;5040520;28;20116;-67
2021/09/17 08:35:28;;;;;;;13.95;12.40;;;18.30;69.60;;;16.28;80.74;96076.88;5069080;28;20051;-67
2021/09/17 08:37:54;;;;;;;18.67;16.67;;;18.20;69.50;;;16.36;80.31;96081.09;5052501;28;20039;-68
2021/09/17 08:40:20;;;;;;;13.27;11.43;;;18.40;69.70;;;16.44;79.57;96078.09;5068843;28;20064;-68
2021/09/17 08:42:45;;;;;;;14.30;12.02;;;18.60;69.30;;;16.53;79.75;96082.88;5036787;28;20124;-69
2021/09/17 08:45:11;;;;;;;14.52;11.57;;;18.60;68.80;;;16.62;79.02;96079.91;5028793;28;20429;-68
2021/09/17 08:47:37;;;;;;;13.98;12.02;;;18.70;68.70;;;16.71;79.08;96074.06;5012353;28;20053;-67
2021/09/17 08:50:03;;;;;;;13.60;11.43;;;18.90;68.70;;;16.81;78.72;96076.97;5012853;28;20025;-68
2021/09/17 08:52:29;;;;;;;13.52;11.30;;;18.90;67.80;;;16.91;79.00;96083.56;5024565;28;20033;-68
2021/09/17 08:54:55;;;;;;;12.98;11.20;;;19.00;68.00;;;16.97;78.30;96075.47;5020665;28;20029;-67
2021/09/17 08:57:20;;;;;;;15.55;11.77;;;19.20;66.70;;;17.05;78.11;96080.47;5030138;28;20040;-68
2021/09/17 08:59:46;;;;;;;17.70;11.93;;;19.10;66.80;;;17.13;77.30;96077.47;5024313;28;20075;-68
2021/09/17 09:02:31;;;;;;;12.85;11.55;;;19.30;66.60;;;17.22;76.13;96082.47;5048504;28;20057;-69
2021/09/17 09:05:06;;;;;;;14.90;10.85;;;19.40;66.50;;;17.30;75.21;96080.25;5049658;28;20029;-67
2021/09/17 09:07:38;;;;;;;12.45;10.98;;;19.60;65.40;;;17.36;75.57;96081.16;5048671;28;20029;-68
2021/09/17 09:10:12;;;;;;;12.55;11.18;;;19.70;65.60;;;17.48;75.71;96076.66;5048726;28;20056;-68
2021/09/17 09:12:52;;;;;;;14.73;10.63;;;19.70;66.20;;;17.57;75.53;96077.91;5027868;28;20033;-69
2021/09/17 09:15:25;;;;;;;14.25;11.10;;;19.80;65.70;;;17.65;76.27;96080.25;5013498;28;20108;-68
2021/09/17 09:17:51;;;;;;;13.43;11.07;;;19.90;63.70;;;17.71;75.49;96075.88;5013076;28;20515;-69
2021/09/17 09:20:35;;;;;;;12.15;10.73;;;19.90;64.60;;;17.79;74.68;96074.69;5029003;28;20112;-69
2021/09/17 09:23:17;;;;;;;10.38;9.38;;;20.00;64.50;;;17.85;75.05;96069.22;5037037;28;20091;-67
2021/09/17 09:25:55;;;;;;;13.35;10.60;;;20.10;65.00;;;17.90;73.78;96066.69;5029540;28;20064;-69
2021/09/17 09:28:36;;;;;;;13.18;11.88;;;20.00;64.00;;;17.93;73.58;96065.41;5028325;28;20083;-67
2021/09/17 09:31:09;;;;;;;12.65;10.85;;;20.00;63.80;;;17.99;72.52;96064.44;5017238;28;20743;-68
2021/09/17 09:33:48;;;;;;;14.52;12.13;;;20.10;64.10;;;18.05;72.60;96063.50;5032296;28;20473;-68
2021/09/17 09:36:19;;;;;;;13.15;11.35;;;20.10;63.10;;;18.06;73.06;96065.13;5032741;28;20029;-68
2021/09/17 09:38:45;;;;;;;;;;;20.10;63.80;;;18.14;72.01;96066.63;5015918;28;20504;-67
2021/09/17 09:41:24;;;;;;;12.75;11.30;;;20.20;63.90;;;18.12;72.68;96056.22;5033452;28;20011;-67
2021/09/17 09:43:56;;;;;;;13.85;11.05;;;20.20;63.50;;;18.19;73.32;96051.53;5012255;28;20404;-68
2021/09/17 09:46:29;;;;;;;12.73;10.55;;;20.40;62.90;;;18.27;73.30;96051.16;5012216;28;20045;-67
2021/09/17 09:49:05;;;;;;;11.90;10.63;;;20.60;62.30;;;18.36;71.56;96055.06;5013744;28;20065;-68
2021/09/17 09:51:56;;;;;;;11.02;9.93;;;20.60;62.50;;;18.45;70.82;96052.00;5013557;28;20038;-68
2021/09/17 09:54:23;;;;;;;;;;;20.60;62.10;;;18.53;72.00;96043.59;5015323;28;20092;-67
2021/09/17 09:56:50;;;;;;;14.27;11.63;;;20.80;62.70;;;18.63;73.29;96038.50;5012350;28;19948;-68
2021/09/17 09:59:17;;;;;;;12.68;10.60;;;21.10;61.50;;;18.78;72.49;96040.59;5028421;28;20552;-68
2021/09/17 10:01:43;;;;;;;11.88;9.30;;;21.30;60.60;;;18.94;72.34;96035.28;5015514;28;20037;-67
2021/09/17 10:04:09;;;;;;;11.00;9.40;;;21.60;59.80;;;19.10;71.40;96027.50;5015907;28;20496;-67
2021/09/17 10:06:37;;;;;;;8.98;8.05;;;21.80;58.40;;;19.28;70.64;96035.25;5015049;28;20100;-67